Time;durP1;ratioP1;P1;durP2;ratioP2;P2;SDS_P1;SDS_P2;PMS_P1;PMS_P2;Temp;Humidity;BMP_temperature;BMP_pressure;BME280_temperature;BME280_humidity;BME280_pressure;Samples;Min_cycle;Max_cycle;Signal;HPM_P1;HPM_P2
2023/08/30 00:00:10;;;;;;;9.95;6.25;;;;;;;19.47;95.17;99648.44;2065420;28;20829;-71
2023/08/30 00:01:14;;;;;;;8.23;5.63;;;;;;;19.46;95.11;99635.97;2077135;28;20049;-71
2023/08/30 00:02:22;;;;;;;8.68;5.63;;;;;;;19.45;94.99;99635.19;2082622;28;20041;-71
2023/08/30 00:03:38;;;;;;;9.32;6.10;;;;;;;19.47;95.23;99632.09;2075168;28;20822;-71
2023/08/30 00:04:40;;;;;;;9.88;6.35;;;;;;;19.40;95.31;99630.03;2051599;28;20039;-70
2023/08/30 00:05:44;;;;;;;9.38;6.00;;;;;;;19.46;95.11;99646.88;2065083;28;20046;-71
2023/08/30 00:06:49;;;;;;;9.48;6.70;;;;;;;19.46;95.05;99635.97;2080992;28;20034;-71
2023/08/30 00:07:52;;;;;;;9.10;6.20;;;;;;;19.47;95.02;99634.03;2088613;28;20104;-71
2023/08/30 00:08:56;;;;;;;9.82;6.32;;;;;;;19.45;95.25;99637.91;2077663;28;20843;-71
2023/08/30 00:10:00;;;;;;;8.80;6.50;;;;;;;19.44;95.02;99635.53;2065077;28;20114;-71
2023/08/30 00:11:03;;;;;;;9.55;6.40;;;;;;;19.44;95.04;99633.59;2075747;28;20030;-71
2023/08/30 00:12:06;;;;;;;9.48;6.70;;;;;;;19.45;95.11;99631.66;2081319;28;20040;-71
2023/08/30 00:13:08;;;;;;;10.80;6.18;;;;;;;19.45;95.01;99637.91;2067817;28;20034;-71
2023/08/30 00:14:10;;;;;;;7.78;5.97;;;;;;;19.45;94.96;99642.56;2057079;28;20977;-71
2023/08/30 00:15:14;;;;;;;8.65;6.00;;;;;;;19.44;95.18;99647.22;2069545;28;20042;-71
2023/08/30 00:16:18;;;;;;;10.70;6.50;;;;;;;19.44;95.06;99649.16;2074509;28;20146;-71
2023/08/30 00:17:20;;;;;;;11.20;6.13;;;;;;;19.43;95.03;99653.84;2069604;28;20777;-71
2023/08/30 00:18:27;;;;;;;11.38;6.82;;;;;;;19.45;95.20;99650.75;2082449;28;20745;-71
2023/08/30 00:19:31;;;;;;;11.18;6.20;;;;;;;19.45;95.22;99656.19;2097410;28;20035;-71
2023/08/30 00:20:33;;;;;;;8.70;6.57;;;;;;;19.44;95.07;99649.16;2090307;28;20033;-71
2023/08/30 00:21:35;;;;;;;11.23;6.80;;;;;;;19.45;95.17;99656.19;2068211;28;20027;-71
2023/08/30 00:22:37;;;;;;;10.05;6.32;;;;;;;19.45;94.99;99651.56;2074407;28;20035;-71
2023/08/30 00:23:41;;;;;;;11.10;6.68;;;;;;;19.45;95.12;99662.47;2069681;28;20090;-71
2023/08/30 00:24:45;;;;;;;8.85;6.18;;;;;;;19.45;95.04;99656.19;2066734;28;20130;-71
2023/08/30 00:25:48;;;;;;;9.65;6.43;;;;;;;19.46;95.16;99649.59;2085098;28;20104;-71
2023/08/30 00:26:50;;;;;;;9.88;6.20;;;;;;;19.45;95.18;99645.28;2058603;28;20043;-71
2023/08/30 00:27:52;;;;;;;8.60;5.72;;;;;;;19.46;95.31;99641.44;2066733;28;20057;-71
2023/08/30 00:28:54;;;;;;;8.60;5.75;;;;;;;19.46;95.18;99646.88;2092201;28;20144;-71
2023/08/30 00:29:57;;;;;;;7.97;5.97;;;;;;;19.45;95.14;99628.94;2090398;28;20037;-71
2023/08/30 00:31:03;;;;;;;8.77;6.30;;;;;;;19.46;94.91;99627.81;2078415;28;20050;-71
2023/08/30 00:32:04;;;;;;;8.30;5.43;;;;;;;19.46;95.02;99630.53;2082824;28;20026;-71
2023/08/30 00:33:05;;;;;;;8.32;5.85;;;;;;;19.46;95.25;99633.25;2085417;28;20044;-71
2023/08/30 00:34:09;;;;;;;7.90;5.57;;;;;;;19.46;95.18;99625.06;2082232;28;20034;-73
2023/08/30 00:35:12;;;;;;;10.07;6.53;;;;;;;19.47;95.17;99625.84;2083162;28;20037;-70
2023/08/30 00:36:18;;;;;;;8.07;5.88;;;;;;;19.45;95.14;99618.03;2098505;28;20025;-70
2023/08/30 00:37:20;;;;;;;8.70;5.50;;;;;;;19.47;95.20;99617.69;2069738;28;20034;-70
2023/08/30 00:38:24;;;;;;;9.43;5.45;;;;;;;19.46;95.27;99619.63;2050507;28;20039;-70
2023/08/30 00:39:26;;;;;;;9.00;5.88;;;;;;;19.46;95.20;99622.34;2073218;28;20108;-70
2023/08/30 00:40:29;;;;;;;10.00;6.22;;;;;;;19.46;95.12;99616.91;2099225;28;20028;-70
2023/08/30 00:41:31;;;;;;;8.98;6.00;;;;;;;19.46;95.31;99611.44;2085699;28;20034;-71
2023/08/30 00:42:33;;;;;;;9.50;5.80;;;;;;;19.45;95.18;99607.13;2074318;28;20042;-71
2023/08/30 00:43:37;;;;;;;7.85;5.63;;;;;;;19.46;95.22;99611.44;2072425;28;20111;-71
2023/08/30 00:44:44;;;;;;;10.50;5.75;;;;;;;19.45;95.13;99607.94;2091741;28;20030;-71
2023/08/30 00:45:48;;;;;;;7.28;5.80;;;;;;;19.46;95.10;99606.00;2071805;28;20952;-71
2023/08/30 00:46:55;;;;;;;8.88;5.60;;;;;;;19.46;95.19;99603.25;2058224;28;20898;-71
2023/08/30 00:48:04;;;;;;;7.93;5.72;;;;;;;19.47;95.11;99615.75;2061374;28;20031;-71
2023/08/30 00:49:06;;;;;;;8.05;5.55;;;;;;;19.47;95.05;99609.50;2068520;28;20117;-71
2023/08/30 00:50:10;;;;;;;7.78;5.75;;;;;;;19.44;95.20;99611.78;2058147;28;20054;-71
2023/08/30 00:51:14;;;;;;;8.95;5.68;;;;;;;19.45;95.24;99607.94;2059839;28;20042;-71
2023/08/30 00:52:19;;;;;;;8.32;5.60;;;;;;;19.45;95.12;99609.84;2074828;28;20037;-71
2023/08/30 00:53:23;;;;;;;7.05;5.13;;;;;;;19.44;95.04;99611.78;2082400;28;20042;-70
2023/08/30 00:54:28;;;;;;;12.05;5.55;;;;;;;19.45;95.13;99612.56;2079047;28;20120;-70
2023/08/30 00:55:30;;;;;;;7.72;5.30;;;;;;;19.44;94.94;99600.09;2082676;28;20037;-70
2023/08/30 00:56:33;;;;;;;8.38;5.18;;;;;;;19.44;94.87;99609.06;2082482;28;20080;-70
2023/08/30 00:57:35;;;;;;;7.10;4.82;;;;;;;19.45;95.14;99607.13;2066036;28;20957;-71
2023/08/30 00:58:37;;;;;;;7.47;5.25;;;;;;;19.47;95.13;99609.50;2066425;28;20153;-70
2023/08/30 00:59:46;;;;;;;7.45;5.00;;;;;;;19.45;95.24;99602.47;2090958;28;20033;-71
2023/08/30 01:00:50;;;;;;;8.20;5.82;;;;;;;19.44;95.12;99605.56;2073053;28;20038;-70
2023/08/30 01:01:53;;;;;;;7.50;5.75;;;;;;;19.44;95.12;99609.06;2058284;28;20946;-70
2023/08/30 01:02:56;;;;;;;10.13;6.05;;;;;;;19.43;95.08;99612.94;2082610;28;20038;-70
2023/08/30 01:03:58;;;;;;;8.65;5.95;;;;;;;19.43;95.04;99612.16;2081775;28;20208;-70
2023/08/30 01:05:00;;;;;;;8.05;5.53;;;;;;;19.43;95.11;99607.50;2082113;28;20038;-70
2023/08/30 01:06:01;;;;;;;9.60;6.10;;;;;;;19.42;95.32;99614.09;2074014;28;20102;-71
2023/08/30 01:07:11;;;;;;;9.93;5.50;;;;;;;19.44;95.31;99611.00;2066889;28;20043;-70
2023/08/30 01:08:13;;;;;;;10.55;5.63;;;;;;;19.43;95.02;99610.22;2066847;28;20865;-71
2023/08/30 01:09:16;;;;;;;8.20;5.53;;;;;;;19.44;94.77;99614.50;2066080;28;20065;-70
2023/08/30 01:10:19;;;;;;;10.98;6.32;;;;;;;19.44;95.23;99611.00;2058369;28;20039;-71
2023/08/30 01:12:00;;;;;;;10.57;6.25;;;;;;;19.43;95.38;99610.22;2074940;28;20034;-70
2023/08/30 01:13:09;;;;;;;8.30;5.30;;;;;;;19.43;95.10;99612.16;2074177;28;20857;-70
2023/08/30 01:14:26;;;;;;;9.38;5.93;;;;;;;19.43;95.02;99614.91;2068065;28;20046;-70
2023/08/30 01:15:29;;;;;;;9.63;5.35;;;;;;;19.45;95.03;99615.31;2066614;28;20046;-70
2023/08/30 01:16:31;;;;;;;7.35;4.90;;;;;;;19.45;95.12;99607.13;2058263;28;20031;-70
2023/08/30 01:17:38;;;;;;;8.23;5.50;;;;;;;19.45;95.11;99613.38;2066393;28;20853;-70
2023/08/30 01:18:41;;;;;;;11.07;5.63;;;;;;;19.45;94.98;99613.38;2058682;28;20043;-71
2023/08/30 01:19:57;;;;;;;10.48;5.72;;;;;;;19.45;95.10;99609.84;2067121;28;20141;-71
2023/08/30 01:21:03;;;;;;;9.00;5.50;;;;;;;19.46;94.96;99611.44;2073803;28;20237;-71
2023/08/30 01:22:24;;;;;;;8.50;5.38;;;;;;;19.46;94.97;99606.00;2076155;28;20865;-70
2023/08/30 01:23:40;;;;;;;7.90;5.38;;;;;;;19.45;94.83;99598.94;2066108;28;20241;-71
2023/08/30 01:25:09;;;;;;;7.95;5.00;;;;;;;19.44;94.88;99594.66;2063039;28;20117;-70
2023/08/30 01:26:13;;;;;;;;;;;;;;;19.46;95.03;99603.25;2077766;28;20034;-71
2023/08/30 01:27:16;;;;;;;11.45;5.78;;;;;;;19.46;94.79;99597.81;2065192;28;19920;-71
2023/08/30 01:28:24;;;;;;;8.52;5.38;;;;;;;19.45;94.93;99599.75;2066210;28;20027;-71
2023/08/30 01:29:31;;;;;;;8.38;5.47;;;;;;;19.44;94.95;99600.88;2074156;28;20038;-71
2023/08/30 01:30:37;;;;;;;8.70;5.05;;;;;;;19.43;94.87;99602.03;2067680;28;20037;-70
2023/08/30 01:31:39;;;;;;;8.52;5.15;;;;;;;19.43;94.61;99595.81;2074566;28;20045;-71
2023/08/30 01:32:42;;;;;;;8.88;5.30;;;;;;;19.44;94.89;99591.94;2074278;28;20042;-71
2023/08/30 01:33:45;;;;;;;8.07;5.35;;;;;;;19.44;94.89;99589.19;2074584;28;20037;-71
2023/08/30 01:34:50;;;;;;;8.43;5.10;;;;;;;19.44;94.84;99594.66;2074623;28;20026;-71
2023/08/30 01:35:51;;;;;;;7.38;5.45;;;;;;;19.43;95.03;99599.31;2082186;28;20147;-71
2023/08/30 01:36:58;;;;;;;8.13;5.68;;;;;;;19.43;94.91;99593.09;2074502;28;20198;-71
2023/08/30 01:38:01;;;;;;;9.00;5.40;;;;;;;19.43;94.78;99595.81;2066175;28;20039;-71
2023/08/30 01:39:04;;;;;;;7.05;5.15;;;;;;;19.43;94.83;99599.31;2075413;28;20046;-71
2023/08/30 01:40:11;;;;;;;7.03;5.70;;;;;;;19.40;94.80;99597.31;2082018;28;20120;-71
2023/08/30 01:41:20;;;;;;;10.13;5.50;;;;;;;19.41;94.87;99595.38;2076102;28;20923;-71
2023/08/30 01:42:22;;;;;;;9.20;5.72;;;;;;;19.41;95.02;99598.09;2082609;28;20037;-71
2023/08/30 01:43:28;;;;;;;10.10;5.90;;;;;;;19.41;94.88;99600.81;2090744;28;20034;-71
2023/08/30 01:44:30;;;;;;;7.60;5.25;;;;;;;19.40;94.88;99605.50;2081764;28;20072;-71
2023/08/30 01:45:35;;;;;;;9.43;5.57;;;;;;;19.37;94.70;99592.59;2074219;28;20045;-71
2023/08/30 01:46:42;;;;;;;8.50;5.57;;;;;;;19.37;95.03;99597.25;2073864;28;20948;-71
2023/08/30 01:47:48;;;;;;;7.35;5.18;;;;;;;19.35;94.94;99592.16;2066982;28;20045;-71
2023/08/30 01:48:52;;;;;;;9.02;5.80;;;;;;;19.34;94.93;99589.78;2067764;28;20034;-70
2023/08/30 01:49:57;;;;;;;8.82;5.38;;;;;;;19.32;95.00;99597.53;2074312;28;20117;-71
2023/08/30 01:51:02;;;;;;;9.63;5.53;;;;;;;19.31;95.10;99594.03;2082765;28;20912;-71
2023/08/30 01:52:07;;;;;;;7.95;5.47;;;;;;;19.31;95.12;99593.25;2075219;28;20030;-71
2023/08/30 01:53:12;;;;;;;11.45;5.72;;;;;;;19.30;95.17;99602.56;2066367;28;20039;-71
2023/08/30 01:54:20;;;;;;;8.02;5.38;;;;;;;19.28;95.21;99596.69;2057768;28;20047;-71
2023/08/30 01:55:22;;;;;;;6.97;4.50;;;;;;;19.26;95.23;99597.03;2067813;28;20046;-71
2023/08/30 01:56:27;;;;;;;7.80;4.57;;;;;;;19.28;95.37;99600.19;2082228;28;20071;-70
2023/08/30 01:57:29;;;;;;;8.77;5.07;;;;;;;19.28;95.19;99602.13;2073903;28;20181;-71
2023/08/30 01:58:30;;;;;;;11.05;5.70;;;;;;;19.25;95.39;99595.47;2065636;28;20153;-71
2023/08/30 01:59:34;;;;;;;10.25;4.90;;;;;;;19.27;95.37;99595.91;2066438;28;20769;-71
2023/08/30 02:00:36;;;;;;;5.93;4.18;;;;;;;19.26;95.29;99591.59;2065814;28;20042;-71
2023/08/30 02:01:40;;;;;;;6.25;4.63;;;;;;;19.27;95.26;99595.13;2074093;28;20873;-70
2023/08/30 02:02:41;;;;;;;10.38;5.22;;;;;;;19.26;95.28;99591.59;2073695;28;20034;-71
2023/08/30 02:03:48;;;;;;;6.95;4.90;;;;;;;19.26;95.15;99588.06;2074416;28;20845;-71
2023/08/30 02:04:50;;;;;;;7.90;4.82;;;;;;;19.25;95.31;99589.22;2072947;28;20026;-71
2023/08/30 02:06:06;;;;;;;5.68;4.60;;;;;;;19.23;95.40;99584.16;2065906;28;20062;-71
2023/08/30 02:07:16;;;;;;;6.03;4.03;;;;;;;19.23;95.37;99578.72;2081416;28;20034;-71
2023/08/30 02:08:19;;;;;;;7.45;4.40;;;;;;;19.22;95.25;99577.88;2064403;28;20151;-70
2023/08/30 02:09:38;;;;;;;6.05;4.30;;;;;;;19.22;95.16;99577.09;2058405;28;20039;-71
2023/08/30 02:10:55;;;;;;;7.80;4.10;;;;;;;19.21;95.21;99576.31;2077021;28;20038;-71
2023/08/30 02:12:00;;;;;;;4.53;3.50;;;;;;;19.22;95.32;99568.94;2082166;28;20073;-71
2023/08/30 02:13:05;;;;;;;6.05;4.13;;;;;;;19.24;95.12;99572.09;2073986;28;20232;-71
2023/08/30 02:14:12;;;;;;;5.50;3.70;;;;;;;19.24;95.07;99577.53;2066835;28;20038;-71
2023/08/30 02:15:15;;;;;;;7.00;4.18;;;;;;;19.21;95.06;99568.16;2058770;28;20058;-71
2023/08/30 02:16:18;;;;;;;5.63;3.50;;;;;;;19.21;95.16;99576.31;2082784;28;20041;-71
2023/08/30 02:17:24;;;;;;;7.57;4.25;;;;;;;19.19;95.46;99567.72;2089474;28;20040;-71
2023/08/30 02:18:27;;;;;;;5.85;3.63;;;;;;;19.21;94.93;99572.81;2090420;28;20908;-71
2023/08/30 02:19:33;;;;;;;6.72;3.28;;;;;;;19.21;94.97;99570.88;2073210;28;20038;-71
2023/08/30 02:20:35;;;;;;;7.43;3.78;;;;;;;19.21;95.13;99579.03;2082461;28;20069;-71
2023/08/30 02:21:40;;;;;;;4.95;3.35;;;;;;;19.21;94.92;99575.53;2081621;28;20758;-71
2023/08/30 02:22:44;;;;;;;7.30;3.80;;;;;;;19.21;94.90;99572.81;2058820;28;20069;-71
2023/08/30 02:23:50;;;;;;;6.38;3.80;;;;;;;19.21;94.75;99564.63;2066267;28;20034;-71
2023/08/30 02:24:52;;;;;;;6.18;4.00;;;;;;;19.21;94.85;99565.44;2075049;28;20957;-71
2023/08/30 02:25:55;;;;;;;5.55;3.45;;;;;;;19.22;94.83;99577.09;2073501;28;21125;-71
2023/08/30 02:26:59;;;;;;;5.55;3.95;;;;;;;19.21;94.85;99565.44;2074006;28;20136;-72
2023/08/30 02:28:05;;;;;;;8.18;4.00;;;;;;;19.20;94.88;99569.31;2074326;28;20033;-71
2023/08/30 02:29:09;;;;;;;5.28;3.50;;;;;;;19.22;94.83;99568.94;2074604;28;20077;-71
2023/08/30 02:30:15;;;;;;;8.38;3.95;;;;;;;19.20;94.95;99566.59;2066100;28;20187;-71
2023/08/30 02:31:18;;;;;;;6.38;3.83;;;;;;;19.18;94.89;99566.16;2066633;28;20077;-71
2023/08/30 02:32:21;;;;;;;4.93;3.30;;;;;;;19.20;94.99;99568.53;2073889;28;20046;-71
2023/08/30 02:33:23;;;;;;;5.45;3.85;;;;;;;19.18;95.00;99574.31;2082220;28;20048;-71
2023/08/30 02:34:25;;;;;;;6.72;3.50;;;;;;;19.19;95.03;99569.66;2073835;28;20030;-71
2023/08/30 02:35:27;;;;;;;6.07;3.53;;;;;;;19.19;94.97;99572.38;2073552;28;20755;-71
2023/08/30 02:36:30;;;;;;;6.50;3.97;;;;;;;19.19;94.99;99569.66;2065978;28;20125;-71
2023/08/30 02:37:34;;;;;;;6.45;3.75;;;;;;;19.18;95.00;99568.88;2082322;28;20921;-71
2023/08/30 02:38:36;;;;;;;6.70;3.67;;;;;;;19.18;94.94;99559.91;2073257;28;20863;-71
2023/08/30 02:39:38;;;;;;;5.13;2.97;;;;;;;19.19;94.81;99558.75;2065953;28;20858;-71
2023/08/30 02:40:39;;;;;;;6.78;3.50;;;;;;;19.20;94.87;99563.84;2073969;28;20037;-71
2023/08/30 02:41:46;;;;;;;4.70;2.97;;;;;;;19.19;95.11;99562.25;2082768;28;20041;-71
2023/08/30 02:42:53;;;;;;;3.92;2.85;;;;;;;19.20;94.94;99558.41;2081779;28;20042;-71
2023/08/30 02:43:58;;;;;;;4.68;3.05;;;;;;;19.19;95.00;99556.81;2083185;28;20038;-71
2023/08/30 02:45:01;;;;;;;4.30;3.00;;;;;;;19.20;94.94;99563.84;2073549;28;20045;-71
2023/08/30 02:46:04;;;;;;;8.63;3.67;;;;;;;19.19;94.79;99562.25;2065567;28;20077;-71
2023/08/30 02:47:08;;;;;;;4.30;2.78;;;;;;;19.20;94.86;99557.63;2074180;28;20766;-71
2023/08/30 02:48:15;;;;;;;4.18;2.63;;;;;;;19.19;94.89;99562.25;2066637;28;20039;-71
2023/08/30 02:49:16;;;;;;;4.78;2.80;;;;;;;19.18;94.91;99560.69;2073768;28;20042;-71
2023/08/30 02:50:20;;;;;;;3.15;2.10;;;;;;;19.18;94.79;99563.41;2073240;28;20109;-71
2023/08/30 02:51:22;;;;;;;3.38;2.50;;;;;;;19.19;94.92;99561.47;2073072;28;20046;-71
2023/08/30 02:52:25;;;;;;;2.58;1.92;;;;;;;19.18;94.67;99560.69;2081843;28;20034;-71
2023/08/30 02:53:27;;;;;;;3.15;2.42;;;;;;;19.19;94.69;99558.75;2073293;28;20050;-71
2023/08/30 02:54:32;;;;;;;3.03;2.20;;;;;;;19.18;94.66;99555.25;2073566;28;20046;-71
2023/08/30 02:55:35;;;;;;;2.45;2.05;;;;;;;19.19;94.84;99554.09;2081811;28;20042;-71
2023/08/30 02:56:37;;;;;;;2.95;1.98;;;;;;;19.20;94.88;99560.34;2065209;28;20045;-71
2023/08/30 02:57:38;;;;;;;2.35;1.98;;;;;;;19.19;94.74;99564.19;2065850;28;20077;-71
2023/08/30 02:58:42;;;;;;;3.45;2.00;;;;;;;19.18;94.91;99563.41;2057773;28;20043;-71
2023/08/30 02:59:45;;;;;;;5.05;1.95;;;;;;;19.18;94.64;99559.91;2065848;28;20074;-71
2023/08/30 03:00:46;;;;;;;2.55;1.90;;;;;;;19.18;94.64;99563.41;2065733;28;20330;-71
2023/08/30 03:01:50;;;;;;;2.10;1.73;;;;;;;19.19;94.73;99564.97;2065998;28;20105;-71
2023/08/30 03:02:56;;;;;;;3.55;1.80;;;;;;;19.17;94.49;99561.06;2072339;28;20046;-71
2023/08/30 03:04:04;;;;;;;3.50;1.83;;;;;;;19.18;94.63;99563.41;2074691;28;20038;-71
2023/08/30 03:05:11;;;;;;;2.25;2.05;;;;;;;19.18;94.64;99570.81;2074179;28;20152;-71
2023/08/30 03:06:16;;;;;;;2.35;2.05;;;;;;;19.16;94.70;99565.69;2074447;28;20034;-71
2023/08/30 03:07:18;;;;;;;3.35;1.95;;;;;;;19.16;94.89;99573.88;2065795;28;20027;-70
2023/08/30 03:08:21;;;;;;;2.95;1.67;;;;;;;19.16;94.74;99567.66;2074038;28;20084;-71
2023/08/30 03:09:23;;;;;;;2.15;1.90;;;;;;;19.15;94.89;99574.25;2081799;28;20022;-71
2023/08/30 03:10:25;;;;;;;1.92;1.60;;;;;;;19.14;94.80;99569.97;2065543;28;20038;-71
2023/08/30 03:11:27;;;;;;;2.03;1.70;;;;;;;19.14;94.68;99570.75;2065800;28;20030;-71
2023/08/30 03:12:29;;;;;;;2.05;1.83;;;;;;;19.14;94.85;99570.75;2073604;28;20038;-71
2023/08/30 03:13:31;;;;;;;3.20;1.60;;;;;;;19.13;94.83;99571.09;2073771;28;20039;-71
2023/08/30 03:14:33;;;;;;;2.17;1.80;;;;;;;19.13;94.80;99576.53;2065540;28;20041;-71
2023/08/30 03:15:35;;;;;;;1.90;1.70;;;;;;;19.11;94.90;99570.69;2048924;28;20162;-71
2023/08/30 03:16:40;;;;;;;1.98;1.70;;;;;;;19.11;94.96;99582.38;2066014;28;20146;-71
2023/08/30 03:17:43;;;;;;;3.30;1.95;;;;;;;19.09;95.00;99587.38;2065695;28;20049;-71
2023/08/30 03:18:47;;;;;;;4.72;1.67;;;;;;;19.06;94.78;99585.38;2066138;28;20117;-71
2023/08/30 03:19:51;;;;;;;3.53;2.08;;;;;;;19.07;94.92;99584.22;2065401;28;20050;-71
2023/08/30 03:21:03;;;;;;;2.47;1.50;;;;;;;19.08;95.09;99576.84;2065575;28;20191;-71
2023/08/30 03:22:08;;;;;;;3.15;1.90;;;;;;;19.08;95.08;99588.53;2067247;28;20070;-71
2023/08/30 03:23:13;;;;;;;2.20;1.60;;;;;;;19.07;95.10;99597.84;2066448;28;20117;-71
2023/08/30 03:24:15;;;;;;;2.53;1.70;;;;;;;19.08;94.91;99585.81;2073504;28;20038;-71
2023/08/30 03:25:17;;;;;;;2.33;1.73;;;;;;;19.09;95.12;99587.38;2065334;28;20121;-71
2023/08/30 03:26:21;;;;;;;1.75;1.50;;;;;;;19.08;95.13;99593.97;2065773;28;20062;-71
2023/08/30 03:27:26;;;;;;;2.55;1.40;;;;;;;19.10;95.22;99594.38;2090709;28;20041;-71
2023/08/30 03:28:28;;;;;;;2.78;1.65;;;;;;;19.09;95.07;99595.53;2081262;28;20038;-71
2023/08/30 03:29:29;;;;;;;1.67;1.45;;;;;;;19.09;95.06;99594.75;2073763;28;20042;-71
2023/08/30 03:30:32;;;;;;;2.25;1.70;;;;;;;19.08;95.18;99595.91;2073520;28;20136;-71
2023/08/30 03:31:34;;;;;;;1.83;1.58;;;;;;;19.05;95.23;99600.16;2073939;28;20023;-71
2023/08/30 03:32:36;;;;;;;2.47;1.42;;;;;;;19.04;95.20;99601.31;2081238;28;20025;-71
2023/08/30 03:33:41;;;;;;;5.55;1.50;;;;;;;19.05;95.19;99596.63;2065482;28;20034;-71
2023/08/30 03:34:48;;;;;;;2.42;1.48;;;;;;;19.03;95.08;99596.97;2074620;28;20924;-71
2023/08/30 03:35:51;;;;;;;1.83;1.20;;;;;;;19.03;95.20;99607.09;2073108;28;20165;-71
2023/08/30 03:36:56;;;;;;;2.08;1.23;;;;;;;19.02;95.31;99611.75;2066617;28;20039;-71
2023/08/30 03:37:58;;;;;;;1.73;1.33;;;;;;;19.03;95.22;99612.53;2082537;28;20132;-71
2023/08/30 03:39:03;;;;;;;1.30;1.10;;;;;;;19.02;95.24;99617.22;2081259;28;20029;-71
2023/08/30 03:40:09;;;;;;;1.65;1.20;;;;;;;19.02;95.15;99617.22;2073282;28;20852;-71
2023/08/30 03:41:11;;;;;;;1.60;1.10;;;;;;;19.03;95.09;99616.06;2066072;28;20027;-71
2023/08/30 03:42:18;;;;;;;2.22;1.08;;;;;;;19.03;95.22;99613.31;2067232;28;21164;-71
2023/08/30 03:43:22;;;;;;;1.90;1.10;;;;;;;19.03;95.17;99613.31;2081553;28;20037;-71
2023/08/30 03:44:24;;;;;;;4.40;1.67;;;;;;;19.03;95.25;99618.00;2064472;28;20049;-71
2023/08/30 03:45:25;;;;;;;1.95;1.35;;;;;;;19.01;95.26;99623.81;2065649;28;20046;-71
2023/08/30 03:46:32;;;;;;;2.05;1.30;;;;;;;19.00;95.17;99619.50;2089681;28;20756;-71
2023/08/30 03:47:35;;;;;;;1.48;1.20;;;;;;;19.02;95.10;99619.16;2088820;28;20044;-71
2023/08/30 03:48:36;;;;;;;2.08;1.60;;;;;;;19.00;95.09;99622.22;2065352;28;20230;-71
2023/08/30 03:49:39;;;;;;;4.00;1.30;;;;;;;18.99;95.19;99628.81;2073359;28;20045;-71
2023/08/30 03:50:44;;;;;;;2.33;1.30;;;;;;;18.98;95.28;99624.53;2081871;28;20723;-71
2023/08/30 03:51:46;;;;;;;2.70;1.50;;;;;;;18.98;95.22;99619.06;2070016;28;20058;-71
2023/08/30 03:52:51;;;;;;;2.30;1.40;;;;;;;18.96;95.17;99616.69;2059796;28;20035;-71
2023/08/30 03:53:56;;;;;;;3.28;1.30;;;;;;;18.97;95.23;99621.00;2066426;28;20035;-70
2023/08/30 03:54:58;;;;;;;2.20;1.20;;;;;;;18.97;95.04;99631.88;2067201;28;20034;-71
2023/08/30 03:56:00;;;;;;;2.50;1.30;;;;;;;18.99;95.14;99623.38;2074408;28;20038;-71
2023/08/30 03:57:01;;;;;;;1.70;1.33;;;;;;;18.98;95.08;99629.97;2075009;28;20142;-71
2023/08/30 03:58:05;;;;;;;1.65;1.10;;;;;;;18.98;95.18;99632.69;2066389;28;20039;-70
2023/08/30 03:59:10;;;;;;;1.67;1.33;;;;;;;18.99;95.08;99628.81;2067552;28;20031;-71
2023/08/30 04:00:16;;;;;;;1.50;1.17;;;;;;;18.99;95.07;99628.81;2066419;28;20030;-71
2023/08/30 04:01:18;;;;;;;1.80;1.30;;;;;;;18.98;95.08;99628.03;2060314;28;20094;-71
2023/08/30 04:02:21;;;;;;;1.58;1.10;;;;;;;18.99;95.08;99629.59;2083333;28;20841;-71
2023/08/30 04:03:22;;;;;;;3.47;1.20;;;;;;;19.00;94.94;99627.66;2082836;28;20077;-71
2023/08/30 04:04:27;;;;;;;3.53;1.40;;;;;;;19.01;94.75;99625.72;2082771;28;20066;-71
2023/08/30 04:05:52;;;;;;;2.53;1.48;;;;;;;19.01;94.92;99626.53;2058502;28;20045;-71
2023/08/30 04:06:56;;;;;;;1.23;0.98;;;;;;;19.03;94.83;99626.16;2064896;28;20038;-71
2023/08/30 04:07:58;;;;;;;1.75;1.23;;;;;;;19.03;94.71;99626.94;2074389;28;20034;-70
2023/08/30 04:09:00;;;;;;;2.50;1.50;;;;;;;19.01;94.75;99618.38;2081680;28;20034;-70
2023/08/30 04:10:07;;;;;;;1.30;1.02;;;;;;;18.99;94.83;99620.66;2082433;28;20038;-71
2023/08/30 04:11:09;;;;;;;2.03;1.30;;;;;;;18.99;94.77;99620.66;2082879;28;20034;-71
2023/08/30 04:12:11;;;;;;;1.45;0.90;;;;;;;18.99;94.70;99623.38;2074658;28;20864;-70
2023/08/30 04:13:16;;;;;;;2.58;1.10;;;;;;;18.98;94.56;99617.13;2067286;28;20094;-71
2023/08/30 04:14:18;;;;;;;2.75;1.00;;;;;;;18.98;94.56;99624.53;2074698;28;20832;-71
2023/08/30 04:15:20;;;;;;;2.05;1.20;;;;;;;18.99;94.59;99617.91;2058714;28;20043;-71
2023/08/30 04:16:21;;;;;;;2.47;1.30;;;;;;;18.98;94.62;99619.84;2074496;28;20049;-71
2023/08/30 04:17:27;;;;;;;2.00;1.10;;;;;;;18.98;94.48;99616.34;2090917;28;20033;-71
2023/08/30 04:18:32;;;;;;;2.58;1.13;;;;;;;18.97;94.55;99615.53;2073667;28;20044;-71
2023/08/30 04:19:36;;;;;;;1.55;1.10;;;;;;;18.97;94.51;99621.00;2065254;28;20038;-71
2023/08/30 04:20:44;;;;;;;2.08;1.10;;;;;;;18.97;94.51;99615.53;2067123;28;20810;-71
2023/08/30 04:21:46;;;;;;;2.08;0.80;;;;;;;18.96;94.59;99613.97;2076168;28;20030;-71
2023/08/30 04:22:48;;;;;;;3.35;1.10;;;;;;;18.98;94.51;99610.91;2090604;28;20041;-71
2023/08/30 04:23:50;;;;;;;2.70;1.10;;;;;;;18.97;94.55;99609.31;2083143;28;20045;-70
2023/08/30 04:24:52;;;;;;;4.35;0.98;;;;;;;18.98;94.52;99608.19;2082722;28;20030;-71
2023/08/30 04:25:55;;;;;;;4.25;1.50;;;;;;;18.98;94.43;99610.91;2074028;28;20043;-70
2023/08/30 04:26:58;;;;;;;2.00;1.00;;;;;;;18.97;94.55;99604.63;2058748;28;20885;-71
2023/08/30 04:28:01;;;;;;;1.23;0.80;;;;;;;18.97;94.46;99609.31;2058628;28;20035;-71
2023/08/30 04:29:03;;;;;;;2.47;1.10;;;;;;;18.97;94.47;99617.47;2066583;28;20043;-70
2023/08/30 04:30:06;;;;;;;5.15;1.20;;;;;;;18.96;94.51;99610.47;2075248;28;20889;-71
2023/08/30 04:31:08;;;;;;;1.77;1.25;;;;;;;18.95;94.45;99611.63;2082398;28;20156;-71
2023/08/30 04:32:12;;;;;;;3.15;1.05;;;;;;;18.95;94.45;99617.06;2074875;28;20053;-72
2023/08/30 04:33:17;;;;;;;2.50;0.90;;;;;;;18.94;94.41;99608.06;2066829;28;21162;-71
2023/08/30 04:34:20;;;;;;;1.40;1.00;;;;;;;18.93;94.39;99609.25;2067820;28;20065;-71
2023/08/30 04:35:23;;;;;;;4.40;1.27;;;;;;;18.92;94.54;99606.88;2066489;28;20758;-71
2023/08/30 04:36:25;;;;;;;2.55;1.00;;;;;;;18.92;94.74;99602.22;2066379;28;20158;-71
2023/08/30 04:37:31;;;;;;;1.75;1.00;;;;;;;18.91;94.74;99606.06;2074753;28;20049;-71
2023/08/30 04:38:38;;;;;;;2.17;1.05;;;;;;;18.92;94.56;99604.16;2074609;28;20077;-70
2023/08/30 04:39:43;;;;;;;5.38;1.23;;;;;;;18.91;94.56;99606.06;2068369;28;20082;-71
2023/08/30 04:40:47;;;;;;;3.25;1.02;;;;;;;18.92;94.69;99612.34;2074747;28;20030;-71
2023/08/30 04:41:51;;;;;;;1.98;1.20;;;;;;;18.88;94.53;99608.72;2074472;28;20145;-71
2023/08/30 04:42:53;;;;;;;2.28;0.90;;;;;;;18.86;94.54;99606.38;2075399;28;20039;-70
2023/08/30 04:43:55;;;;;;;1.25;1.10;;;;;;;18.88;94.66;99608.72;2074109;28;20085;-71
2023/08/30 04:45:00;;;;;;;5.25;1.00;;;;;;;18.90;94.79;99609.16;2067045;28;20041;-71
2023/08/30 04:46:02;;;;;;;4.47;1.13;;;;;;;18.86;94.73;99608.31;2074846;28;20241;-71
2023/08/30 04:47:06;;;;;;;3.15;1.00;;;;;;;18.86;94.66;99609.09;2066280;28;20102;-71
2023/08/30 04:48:10;;;;;;;2.50;1.02;;;;;;;18.86;94.79;99614.53;2075335;28;20899;-71
2023/08/30 04:49:12;;;;;;;3.20;1.40;;;;;;;18.85;94.71;99604.00;2066695;28;20873;-71
2023/08/30 04:50:17;;;;;;;4.32;1.40;;;;;;;18.84;94.70;99605.94;2075288;28;20034;-71
2023/08/30 04:51:21;;;;;;;2.85;1.70;;;;;;;18.84;94.70;99600.47;2073577;28;20034;-71
2023/08/30 04:52:22;;;;;;;2.05;1.40;;;;;;;18.84;94.92;99610.59;2074773;28;20040;-71
2023/08/30 04:53:25;;;;;;;4.45;2.00;;;;;;;18.85;94.68;99607.53;2074397;28;20069;-71
2023/08/30 04:54:30;;;;;;;3.60;1.60;;;;;;;18.84;94.76;99605.16;2065524;28;20126;-70
2023/08/30 04:55:35;;;;;;;4.45;1.50;;;;;;;18.83;94.73;99604.38;2073950;28;20050;-70
2023/08/30 04:56:38;;;;;;;2.70;1.70;;;;;;;18.83;94.82;99604.38;2079823;28;20168;-71
2023/08/30 04:57:44;;;;;;;5.85;1.85;;;;;;;18.83;94.83;99614.47;2072957;28;20034;-68
2023/08/30 04:58:50;;;;;;;3.88;1.88;;;;;;;18.84;94.78;99607.88;2074086;28;20113;-69
2023/08/30 04:59:53;;;;;;;2.47;1.30;;;;;;;18.84;94.87;99611.38;2064643;28;20038;-71
2023/08/30 05:00:57;;;;;;;2.83;2.20;;;;;;;18.85;94.76;99617.59;2064886;28;20133;-71
2023/08/30 05:01:59;;;;;;;2.47;1.70;;;;;;;18.86;94.77;99608.31;2080607;28;20260;-70
2023/08/30 05:03:04;;;;;;;3.92;1.60;;;;;;;18.86;94.81;99613.75;2080343;28;20030;-70